createdAt,value
2022-08-10T00:01:08.658Z,69.84
2022-08-10T00:03:35.617Z,69.90
2022-08-10T00:06:02.602Z,69.51
2022-08-10T00:08:30.158Z,69.80
2022-08-10T00:10:57.752Z,69.21
2022-08-10T00:13:26.787Z,68.28
2022-08-10T00:15:55.464Z,68.90
2022-08-10T00:18:34.367Z,69.05
2022-08-10T00:21:05.175Z,68.67
2022-08-10T00:23:32.605Z,67.86
2022-08-10T00:25:59.590Z,67.71
2022-08-10T00:28:27.265Z,68.21
2022-08-10T00:30:54.486Z,68.24
2022-08-10T00:33:21.638Z,68.89
2022-08-10T00:35:48.901Z,68.95
2022-08-10T00:38:15.850Z,68.79
2022-08-10T00:40:42.858Z,68.14
2022-08-10T00:43:09.785Z,68.02
2022-08-10T00:45:36.944Z,67.36
2022-08-10T00:48:04.366Z,67.55
2022-08-10T00:50:32.218Z,67.18
2022-08-10T00:52:59.431Z,67.56
2022-08-10T00:55:26.744Z,67.77
2022-08-10T00:57:54.976Z,67.68
2022-08-10T01:00:24.520Z,67.52
2022-08-10T01:02:52.118Z,67.16
2022-08-10T01:05:20.863Z,66.29
2022-08-10T01:08:12.462Z,65.31
2022-08-10T01:12:37.694Z,65.72
2022-08-10T01:14:26.386Z,64.98
2022-08-10T01:17:25.558Z,64.84
2022-08-10T01:20:27.513Z,62.84
2022-08-10T01:23:29.631Z,63.42
2022-08-10T01:26:11.092Z,64.64
2022-08-10T01:28:51.461Z,64.76
2022-08-10T01:31:24.084Z,64.66
2022-08-10T01:34:01.924Z,64.81
2022-08-10T01:36:34.923Z,63.34
2022-08-10T01:39:04.840Z,62.72
2022-08-10T01:41:41.808Z,63.10
2022-08-10T01:44:45.695Z,61.96
2022-08-10T01:47:49.385Z,62.00
2022-08-10T01:50:26.089Z,62.11
2022-08-10T01:52:58.790Z,61.60
2022-08-10T01:55:28.191Z,62.38
2022-08-10T01:57:56.836Z,62.19
2022-08-10T02:00:25.140Z,61.84
2022-08-10T02:02:54.355Z,60.65
2022-08-10T02:05:24.509Z,60.31
2022-08-10T02:07:52.659Z,60.02
2022-08-10T02:10:22.687Z,58.72
2022-08-10T02:12:50.605Z,58.44
2022-08-10T02:15:20.881Z,58.67
2022-08-10T02:17:59.968Z,59.21
2022-08-10T02:20:35.525Z,59.09
2022-08-10T02:23:10.798Z,58.79
2022-08-10T02:25:43.393Z,58.88
2022-08-10T02:28:30.558Z,58.54
2022-08-10T02:31:12.041Z,57.71
2022-08-10T02:33:56.689Z,56.65
2022-08-10T02:36:28.199Z,56.60
2022-08-10T02:39:00.873Z,56.20
2022-08-10T02:45:14.170Z,56.56
2022-08-10T02:45:21.568Z,55.94
2022-08-10T02:47:57.446Z,56.73
2022-08-10T02:50:32.601Z,56.56
2022-08-10T02:53:54.755Z,57.69
2022-08-10T02:56:20.297Z,57.76
2022-08-10T02:58:55.625Z,57.24
2022-08-10T03:01:35.295Z,58.06
2022-08-10T03:04:06.763Z,59.09
2022-08-10T03:06:45.466Z,58.92
2022-08-10T03:09:17.177Z,59.68
2022-08-10T03:12:36.328Z,58.81
2022-08-10T03:14:36.283Z,59.24
2022-08-10T03:17:05.149Z,58.82
2022-08-10T03:20:35.045Z,59.00
2022-08-10T03:22:22.196Z,58.61
2022-08-10T03:24:50.031Z,58.00
2022-08-10T03:27:17.997Z,57.40
2022-08-10T03:30:23.368Z,56.69
2022-08-10T03:32:34.529Z,56.05
2022-08-10T03:35:02.146Z,55.00
2022-08-10T03:37:29.298Z,55.08
2022-08-10T03:39:56.430Z,55.65
2022-08-10T03:42:24.097Z,55.27
2022-08-10T03:44:52.961Z,55.72
2022-08-10T03:47:21.435Z,55.17
2022-08-10T03:49:49.736Z,55.02
2022-08-10T03:52:18.973Z,52.93
2022-08-10T03:54:46.330Z,53.84
2022-08-10T03:57:14.036Z,53.26
2022-08-10T03:59:41.249Z,52.72
2022-08-10T04:02:44.345Z,52.91
2022-08-10T04:04:55.579Z,52.40
2022-08-10T04:07:22.990Z,53.36
2022-08-10T04:09:55.731Z,53.62
2022-08-10T04:12:25.979Z,54.47
2022-08-10T04:14:53.751Z,53.93
2022-08-10T04:18:04.193Z,53.73
2022-08-10T04:20:16.380Z,53.07
2022-08-10T04:22:44.941Z,52.42
2022-08-10T04:25:14.846Z,52.46
2022-08-10T04:27:42.864Z,53.49
2022-08-10T04:30:10.663Z,51.95
2022-08-10T04:32:38.188Z,52.63
2022-08-10T04:35:07.042Z,52.32
2022-08-10T04:37:37.425Z,51.73
2022-08-10T04:40:28.317Z,52.56
2022-08-10T04:43:10.395Z,52.09
2022-08-10T04:45:47.613Z,52.50
2022-08-10T04:48:42.780Z,51.66
2022-08-10T04:51:03.325Z,51.85
2022-08-10T04:53:31.249Z,51.47
2022-08-10T04:55:58.298Z,51.72
2022-08-10T04:58:25.319Z,51.22
2022-08-10T05:00:52.318Z,50.81
2022-08-10T05:03:19.457Z,52.06
2022-08-10T05:05:46.404Z,52.08
2022-08-10T05:08:15.592Z,52.53
2022-08-10T05:10:42.575Z,51.01
2022-08-10T05:13:09.530Z,51.55
2022-08-10T05:15:36.624Z,50.42
2022-08-10T05:18:09.768Z,50.50
2022-08-10T05:20:39.414Z,49.40
2022-08-10T05:23:07.422Z,49.29
2022-08-10T05:25:38.039Z,49.59
2022-08-10T05:28:06.770Z,49.58
2022-08-10T05:30:34.504Z,48.57
2022-08-10T05:33:05.042Z,48.65
2022-08-10T05:35:55.303Z,48.81
2022-08-10T05:38:23.444Z,48.44
2022-08-10T05:40:51.055Z,47.19
2022-08-10T05:43:21.443Z,48.20
2022-08-10T05:46:16.948Z,48.16
2022-08-10T05:48:53.919Z,47.90
2022-08-10T05:51:25.652Z,47.47
2022-08-10T05:54:02.803Z,47.86
2022-08-10T05:56:55.788Z,47.07
2022-08-10T06:00:12.680Z,46.33
2022-08-10T06:02:30.841Z,45.61
2022-08-10T06:05:06.440Z,45.64
2022-08-10T06:07:37.505Z,45.80
2022-08-10T06:10:10.199Z,45.06
2022-08-10T06:12:55.729Z,44.49
2022-08-10T06:15:52.283Z,44.51
2022-08-10T06:18:17.050Z,45.35
2022-08-10T06:20:45.807Z,45.57
2022-08-10T06:23:13.009Z,44.92
2022-08-10T06:26:09.784Z,44.63
2022-08-10T06:28:31.380Z,43.74
2022-08-10T06:31:00.512Z,44.55
2022-08-10T06:33:31.856Z,44.56
2022-08-10T06:36:00.672Z,44.35
2022-08-10T06:38:32.059Z,43.93
2022-08-10T06:41:03.234Z,43.75
2022-08-10T06:43:33.984Z,43.56
2022-08-10T06:46:07.233Z,43.99
2022-08-10T06:48:41.856Z,44.52
2022-08-10T06:51:15.481Z,43.78
2022-08-10T06:53:54.055Z,43.64
2022-08-10T06:56:36.464Z,43.79
2022-08-10T06:59:14.609Z,42.94
2022-08-10T07:02:02.470Z,41.80
2022-08-10T07:05:07.735Z,42.35
2022-08-10T07:07:38.835Z,42.37
2022-08-10T07:10:07.157Z,42.60
2022-08-10T07:12:36.427Z,43.24
2022-08-10T07:15:04.488Z,43.21
2022-08-10T07:17:35.998Z,43.98
2022-08-10T07:20:09.397Z,43.97
2022-08-10T07:23:01.545Z,43.46
2022-08-10T07:25:27.618Z,43.02
2022-08-10T07:27:59.849Z,43.43
2022-08-10T07:30:32.467Z,44.12
2022-08-10T07:33:01.599Z,44.69
2022-08-10T07:35:36.492Z,44.05
2022-08-10T07:38:13.176Z,43.90
2022-08-10T07:40:42.502Z,43.35
2022-08-10T07:43:10.786Z,43.43
2022-08-10T07:45:38.042Z,42.43
2022-08-10T07:48:10.011Z,40.81
2022-08-10T07:50:40.616Z,40.68
2022-08-10T07:53:23.233Z,40.70
2022-08-10T07:56:08.208Z,41.70
2022-08-10T07:58:50.706Z,41.09
2022-08-10T08:01:24.217Z,41.55
2022-08-10T08:04:06.007Z,41.67
2022-08-10T08:06:40.518Z,40.89
2022-08-10T08:09:07.821Z,41.03
2022-08-10T08:11:37.201Z,40.98
2022-08-10T08:14:07.681Z,40.34
2022-08-10T08:16:36.926Z,39.87
2022-08-10T08:24:09.712Z,38.07
2022-08-10T08:24:41.931Z,38.03
2022-08-10T08:27:11.157Z,39.06
2022-08-10T08:29:42.300Z,38.67
2022-08-10T08:32:11.674Z,38.29
2022-08-10T08:34:42.615Z,38.24
2022-08-10T08:37:11.463Z,39.25
2022-08-10T08:39:38.752Z,38.74
2022-08-10T08:42:15.749Z,37.99
2022-08-10T08:45:00.176Z,37.19
2022-08-10T08:48:11.959Z,38.06
2022-08-10T08:50:47.502Z,37.42
2022-08-10T08:53:22.393Z,36.69
2022-08-10T08:56:06.096Z,36.92
2022-08-10T08:58:52.334Z,36.51
2022-08-10T09:01:22.004Z,37.11
2022-08-10T09:04:21.227Z,36.80
2022-08-10T09:07:58.973Z,34.92
2022-08-10T09:10:34.152Z,34.45
2022-08-10T09:13:16.875Z,33.17
2022-08-10T09:16:08.441Z,35.01
2022-08-10T09:19:03.833Z,34.34
2022-08-10T09:21:43.086Z,37.47
2022-08-10T09:24:45.096Z,39.67
2022-08-10T09:27:20.667Z,38.75
2022-08-10T09:30:00.687Z,40.82
2022-08-10T09:36:19.322Z,41.57
2022-08-10T09:36:19.475Z,40.75
2022-08-10T09:38:54.711Z,44.04
2022-08-10T09:41:35.978Z,43.48
2022-08-10T09:44:30.366Z,42.34
2022-08-10T09:47:12.006Z,40.92
2022-08-10T09:49:55.825Z,40.78
2022-08-10T09:52:59.185Z,39.04
2022-08-10T09:56:19.174Z,39.33
2022-08-10T09:59:26.737Z,38.91
2022-08-10T10:02:00.593Z,38.77
2022-08-10T10:05:03.294Z,37.66
2022-08-10T10:07:30.885Z,37.39
2022-08-10T10:10:17.163Z,41.19
2022-08-10T10:12:50.642Z,39.41
2022-08-10T10:15:37.823Z,37.96
2022-08-10T10:18:07.818Z,36.54
2022-08-10T10:20:40.542Z,35.65
2022-08-10T10:23:22.626Z,34.86
2022-08-10T10:26:18.416Z,35.21
2022-08-10T10:32:18.584Z,35.13
2022-08-10T10:34:59.504Z,35.64
2022-08-10T10:38:01.319Z,36.50
2022-08-10T10:40:17.043Z,37.21
2022-08-10T10:43:15.812Z,38.47
2022-08-10T10:46:30.197Z,39.70
2022-08-10T10:49:51.206Z,37.83
2022-08-10T10:52:39.211Z,38.58
2022-08-10T10:56:14.669Z,35.94
2022-08-10T10:59:54.512Z,35.27
2022-08-10T11:02:06.065Z,34.38
2022-08-10T11:04:57.172Z,33.36
2022-08-10T11:07:45.973Z,32.97
2022-08-10T11:10:33.386Z,34.56
2022-08-10T11:13:03.033Z,33.16
2022-08-10T11:16:05.853Z,33.06
2022-08-10T11:18:35.808Z,33.88
2022-08-10T11:21:23.571Z,33.84
2022-08-10T11:24:48.930Z,31.78
2022-08-10T11:26:50.927Z,31.02
2022-08-10T11:29:30.432Z,32.55
2022-08-10T11:32:03.763Z,33.64
2022-08-10T11:34:46.867Z,34.32
2022-08-10T11:37:26.048Z,33.56
2022-08-10T11:39:59.510Z,32.68
2022-08-10T11:42:49.582Z,34.33
2022-08-10T11:45:19.795Z,34.89
2022-08-10T11:48:54.406Z,33.67
2022-08-10T11:51:35.496Z,33.97
2022-08-10T11:54:08.247Z,33.02
2022-08-10T11:56:50.798Z,32.66
2022-08-10T11:59:38.045Z,33.79
2022-08-10T12:02:07.416Z,34.01
2022-08-10T12:04:36.031Z,32.58
2022-08-10T12:07:05.239Z,31.36
2022-08-10T12:10:06.868Z,32.32
2022-08-10T12:12:45.686Z,31.12
2022-08-10T12:15:38.571Z,31.24
2022-08-10T12:18:15.484Z,30.05
2022-08-10T12:20:46.407Z,29.50
2022-08-10T12:23:31.389Z,29.88
2022-08-10T12:26:13.404Z,28.46
2022-08-10T12:28:58.856Z,29.30
2022-08-10T12:31:35.315Z,32.07
2022-08-10T12:34:23.682Z,32.20
2022-08-10T12:37:29.482Z,32.85
2022-08-10T12:40:33.776Z,32.51
2022-08-10T12:44:06.948Z,35.17
2022-08-10T12:46:32.416Z,34.81
2022-08-10T12:49:09.022Z,33.63
2022-08-10T12:51:49.541Z,33.54
2022-08-10T12:54:31.971Z,31.81
2022-08-10T12:57:22.443Z,31.93
2022-08-10T12:59:54.686Z,34.05
2022-08-10T13:02:51.702Z,35.73
2022-08-10T13:05:19.337Z,35.60
2022-08-10T13:08:27.121Z,34.83
2022-08-10T13:11:03.349Z,35.34
2022-08-10T13:13:39.979Z,35.22
2022-08-10T13:16:07.766Z,35.00
2022-08-10T13:18:43.625Z,35.13
2022-08-10T13:21:20.751Z,34.84
2022-08-10T13:24:11.307Z,35.94
2022-08-10T13:27:03.772Z,36.44
2022-08-10T13:29:36.489Z,35.36
2022-08-10T13:32:10.809Z,34.00
2022-08-10T13:34:45.318Z,33.21
2022-08-10T13:37:16.186Z,33.03
2022-08-10T13:39:59.676Z,34.54
2022-08-10T13:42:32.403Z,35.38
2022-08-10T13:45:16.431Z,37.68
2022-08-10T13:47:49.705Z,36.73
2022-08-10T13:50:34.590Z,36.57
2022-08-10T13:53:09.991Z,37.22
2022-08-10T13:55:55.261Z,36.65
2022-08-10T13:58:32.883Z,36.90
2022-08-10T14:01:03.042Z,35.08
2022-08-10T14:03:37.598Z,34.80
2022-08-10T14:06:06.996Z,35.46
2022-08-10T14:08:36.157Z,37.23
2022-08-10T14:11:11.338Z,37.84
2022-08-10T14:13:46.214Z,37.18
2022-08-10T14:16:13.889Z,36.93
2022-08-10T14:18:44.970Z,36.96
2022-08-10T14:21:14.825Z,36.75
2022-08-10T14:23:52.216Z,36.56
2022-08-10T14:26:31.305Z,36.94
2022-08-10T14:29:10.854Z,36.51
2022-08-10T14:32:00.901Z,37.11
2022-08-10T14:36:23.337Z,37.83
2022-08-10T14:37:38.057Z,37.39
2022-08-10T14:40:11.962Z,36.92
2022-08-10T14:42:47.478Z,38.36
2022-08-10T14:45:24.867Z,37.64
2022-08-10T14:48:00.825Z,37.94
2022-08-10T14:50:32.799Z,37.82
2022-08-10T14:53:09.756Z,37.63
2022-08-10T14:55:58.324Z,38.42
2022-08-10T14:58:31.052Z,38.31
2022-08-10T15:00:59.772Z,38.39
2022-08-10T15:04:01.369Z,38.46
2022-08-10T15:06:21.067Z,37.96
2022-08-10T15:09:18.895Z,37.71
2022-08-10T15:12:15.900Z,37.85
2022-08-10T15:14:43.645Z,38.47
2022-08-10T15:17:16.179Z,37.83
2022-08-10T15:20:02.737Z,37.01
2022-08-10T15:22:38.062Z,36.35
2022-08-10T15:25:18.764Z,36.88
2022-08-10T15:27:56.126Z,37.29
2022-08-10T15:30:31.014Z,37.55
2022-08-10T15:34:00.233Z,38.09
2022-08-10T15:36:35.385Z,37.82
2022-08-10T15:39:17.187Z,36.89
2022-08-10T15:42:21.195Z,38.20
2022-08-10T15:44:50.753Z,38.74
2022-08-10T15:47:45.407Z,38.27
2022-08-10T15:50:25.367Z,37.88
2022-08-10T15:53:01.924Z,37.92
2022-08-10T15:55:43.916Z,37.65
2022-08-10T15:58:39.317Z,39.08
2022-08-10T16:02:14.098Z,39.70
2022-08-10T16:04:32.332Z,39.10
2022-08-10T16:07:08.248Z,39.05
2022-08-10T16:10:24.278Z,38.99
2022-08-10T16:12:34.585Z,39.36
2022-08-10T16:15:11.151Z,39.10
2022-08-10T16:17:55.325Z,40.23
2022-08-10T16:20:31.238Z,39.26
2022-08-10T16:23:02.379Z,39.47
2022-08-10T16:25:48.327Z,39.27
2022-08-10T16:28:23.233Z,38.93
2022-08-10T16:30:56.064Z,38.78
2022-08-10T16:33:53.050Z,38.74
2022-08-10T16:36:20.907Z,40.25
2022-08-10T16:38:50.851Z,40.01
2022-08-10T16:42:02.873Z,39.52
2022-08-10T16:44:13.493Z,39.18
2022-08-10T16:46:44.685Z,40.05
2022-08-10T16:49:15.876Z,40.13
2022-08-10T16:51:48.222Z,40.55
2022-08-10T16:54:22.344Z,40.59
2022-08-10T16:56:53.459Z,41.15
2022-08-10T16:59:24.184Z,40.79
2022-08-10T17:01:53.802Z,41.14
2022-08-10T17:04:23.521Z,40.82
2022-08-10T17:06:57.793Z,40.68
2022-08-10T17:09:30.365Z,41.77
2022-08-10T17:11:59.503Z,42.30
2022-08-10T17:14:29.146Z,42.23
2022-08-10T17:17:24.649Z,42.38
2022-08-10T17:19:57.710Z,43.31
2022-08-10T17:22:45.794Z,42.13
2022-08-10T17:25:21.470Z,43.17
2022-08-10T17:28:04.628Z,44.19
2022-08-10T17:30:57.381Z,43.99
2022-08-10T17:33:30.350Z,43.96
2022-08-10T17:36:03.154Z,44.02
2022-08-10T17:38:33.674Z,43.51
2022-08-10T17:41:00.547Z,45.03
2022-08-10T17:43:58.383Z,44.34
2022-08-10T17:46:18.983Z,44.49
2022-08-10T17:48:46.066Z,45.38
2022-08-10T17:51:15.551Z,45.29
2022-08-10T17:53:47.742Z,45.67
2022-08-10T17:56:16.688Z,45.30
2022-08-10T17:58:51.307Z,45.27
2022-08-10T18:01:40.340Z,45.10
2022-08-10T18:04:14.889Z,45.58
2022-08-10T18:06:44.065Z,45.74
2022-08-10T18:09:24.783Z,46.59
2022-08-10T18:11:59.443Z,46.62
2022-08-10T18:14:29.627Z,46.76
2022-08-10T18:16:59.087Z,46.71
2022-08-10T18:19:30.061Z,46.35
2022-08-10T18:21:58.778Z,46.06
2022-08-10T18:24:28.926Z,46.65
2022-08-10T18:26:58.247Z,46.61
2022-08-10T18:29:28.716Z,46.57
2022-08-10T18:32:01.751Z,47.40
2022-08-10T18:34:31.865Z,47.62
2022-08-10T18:37:00.108Z,49.22
2022-08-10T18:39:36.377Z,49.13
2022-08-10T18:42:15.060Z,49.46
2022-08-10T18:44:47.563Z,50.09
2022-08-10T18:47:34.983Z,50.28
2022-08-10T18:50:10.183Z,49.96
2022-08-10T18:52:39.987Z,49.76
2022-08-10T18:55:46.126Z,50.39
2022-08-10T18:59:00.660Z,50.11
2022-08-10T19:01:30.029Z,50.57
2022-08-10T19:04:19.142Z,51.17
2022-08-10T19:06:59.386Z,51.97
2022-08-10T19:10:03.782Z,52.46
2022-08-10T19:12:36.903Z,52.93
2022-08-10T19:15:10.496Z,53.18
2022-08-10T19:18:04.447Z,53.33
2022-08-10T19:20:58.420Z,53.52
2022-08-10T19:24:00.950Z,53.75
2022-08-10T19:26:49.564Z,54.27
2022-08-10T19:30:10.142Z,54.14
2022-08-10T19:32:32.340Z,54.54
2022-08-10T19:35:17.739Z,54.64
2022-08-10T19:37:44.632Z,55.66
2022-08-10T19:40:44.013Z,55.80
2022-08-10T19:43:30.606Z,55.71
2022-08-10T19:46:06.133Z,55.99
2022-08-10T19:48:39.347Z,55.85
2022-08-10T19:51:23.063Z,56.37
2022-08-10T19:53:59.135Z,55.48
2022-08-10T19:56:43.537Z,56.00
2022-08-10T20:00:16.088Z,56.45
2022-08-10T20:03:23.136Z,56.50
2022-08-10T20:06:13.326Z,57.67
2022-08-10T20:08:56.866Z,57.81
2022-08-10T20:11:44.299Z,58.26
2022-08-10T20:14:21.571Z,58.70
2022-08-10T20:16:52.607Z,59.12
2022-08-10T20:19:53.044Z,59.58
2022-08-10T20:22:29.442Z,59.36
2022-08-10T20:25:01.719Z,59.52
2022-08-10T20:28:00.139Z,59.65
2022-08-10T20:30:34.979Z,60.16
2022-08-10T20:33:18.484Z,60.18
2022-08-10T20:36:05.987Z,60.71
2022-08-10T20:38:42.643Z,60.90
2022-08-10T20:41:23.231Z,61.01
2022-08-10T20:44:15.148Z,61.44
2022-08-10T20:46:54.376Z,61.71
2022-08-10T20:49:44.518Z,62.15
2022-08-10T20:52:12.904Z,61.94
2022-08-10T20:54:51.116Z,61.82
2022-08-10T20:57:56.631Z,61.43
2022-08-10T21:00:30.768Z,61.27
2022-08-10T21:03:33.088Z,61.93
2022-08-10T21:06:41.123Z,62.28
2022-08-10T21:09:25.372Z,62.54
2022-08-10T21:12:20.031Z,62.51
2022-08-10T21:15:07.412Z,62.28
2022-08-10T21:17:37.528Z,62.50
2022-08-10T21:20:14.732Z,61.35
2022-08-10T21:22:45.738Z,61.50
2022-08-10T21:25:23.843Z,61.15
2022-08-10T21:27:59.782Z,60.72
2022-08-10T21:30:53.245Z,61.36
2022-08-10T21:33:42.742Z,60.89
2022-08-10T21:36:32.363Z,61.13
2022-08-10T21:39:16.127Z,60.97
2022-08-10T21:42:35.922Z,61.16
2022-08-10T21:45:58.017Z,60.86
2022-08-10T21:48:57.584Z,60.79
2022-08-10T21:52:00.708Z,61.25
2022-08-10T21:55:00.565Z,61.33
2022-08-10T21:57:58.236Z,62.00
2022-08-10T22:00:44.087Z,61.26
2022-08-10T22:03:40.229Z,61.78
2022-08-10T22:06:27.430Z,62.40
2022-08-10T22:09:21.050Z,62.72
2022-08-10T22:12:30.783Z,62.96
2022-08-10T22:15:23.607Z,63.39
2022-08-10T22:18:31.474Z,63.62
2022-08-10T22:21:52.260Z,63.49
2022-08-10T22:28:19.815Z,64.76
2022-08-10T22:31:26.142Z,64.25
2022-08-10T22:31:31.593Z,64.43
2022-08-10T22:34:55.578Z,64.60
2022-08-10T22:38:17.234Z,65.35
2022-08-10T22:41:04.463Z,65.65
2022-08-10T22:43:52.593Z,65.48
2022-08-10T22:46:42.704Z,65.33
2022-08-10T22:49:10.156Z,65.27
2022-08-10T22:51:45.934Z,65.34
2022-08-10T22:54:57.619Z,65.34
2022-08-10T22:57:43.351Z,65.61
2022-08-10T23:00:31.686Z,66.13
2022-08-10T23:03:13.360Z,66.60
2022-08-10T23:05:55.373Z,66.71
2022-08-10T23:08:43.417Z,66.46
2022-08-10T23:11:24.927Z,66.16
2022-08-10T23:14:02.581Z,66.39
2022-08-10T23:16:54.159Z,66.21
2022-08-10T23:19:25.731Z,66.66
2022-08-10T23:22:07.568Z,66.68
2022-08-10T23:24:52.713Z,66.96
2022-08-10T23:27:38.519Z,67.37
2022-08-10T23:30:16.954Z,67.32
2022-08-10T23:32:49.250Z,66.59
2022-08-10T23:36:31.178Z,68.01
2022-08-10T23:38:15.470Z,67.48
2022-08-10T23:40:48.336Z,67.61
2022-08-10T23:43:18.522Z,67.65
2022-08-10T23:45:53.921Z,67.15
2022-08-10T23:48:29.685Z,67.98
2022-08-10T23:51:03.853Z,68.13
2022-08-10T23:53:45.133Z,69.13
2022-08-10T23:56:14.280Z,68.88
2022-08-10T23:59:08.800Z,69.10
